createdAt,value
2022-12-17T00:01:01.968Z,13.02
2022-12-17T00:03:47.463Z,8.77
2022-12-17T00:06:34.028Z,9.80
2022-12-17T00:09:19.423Z,12.52
2022-12-17T00:12:45.877Z,10.32
2022-12-17T00:15:53.738Z,10.95
2022-12-17T00:19:00.594Z,12.00
2022-12-17T00:22:04.497Z,8.00
2022-12-17T00:25:08.354Z,8.45
2022-12-17T00:28:13.683Z,10.13
2022-12-17T00:31:18.198Z,8.90
2022-12-17T00:34:22.221Z,9.95
2022-12-17T00:37:25.993Z,11.68
2022-12-17T00:40:38.788Z,10.02
2022-12-17T00:43:44.110Z,8.52
2022-12-17T00:49:52.012Z,14.07
2022-12-17T00:53:00.776Z,8.07
2022-12-17T00:56:05.029Z,10.50
2022-12-17T00:59:10.811Z,21.42
2022-12-17T01:02:14.907Z,13.23
2022-12-17T01:05:19.276Z,11.50
2022-12-17T01:08:28.913Z,10.93
2022-12-17T01:11:32.650Z,12.48
2022-12-17T01:14:38.281Z,11.43
2022-12-17T01:17:42.239Z,11.20
2022-12-17T01:20:46.021Z,9.10
2022-12-17T01:23:50.115Z,9.98
2022-12-17T01:26:54.103Z,18.58
2022-12-17T01:30:01.656Z,12.02
2022-12-17T01:33:14.683Z,16.98
2022-12-17T01:36:18.734Z,11.68
2022-12-17T01:39:23.015Z,11.27
2022-12-17T01:42:30.435Z,24.70
2022-12-17T01:45:36.649Z,22.40
2022-12-17T01:48:46.917Z,17.38
2022-12-17T01:51:51.286Z,18.92
2022-12-17T01:54:56.266Z,18.63
2022-12-17T01:58:00.773Z,16.15
2022-12-17T02:01:05.128Z,26.17
2022-12-17T02:04:12.871Z,20.98
2022-12-17T02:07:29.395Z,14.38
2022-12-17T02:10:41.917Z,14.32
2022-12-17T02:14:00.104Z,18.70
2022-12-17T02:17:14.623Z,14.63
2022-12-17T02:20:33.875Z,16.48
2022-12-17T02:23:54.720Z,10.45
2022-12-17T02:27:16.131Z,11.80
2022-12-17T02:30:23.765Z,15.80
2022-12-17T02:33:28.224Z,13.52
2022-12-17T02:36:32.600Z,12.60
2022-12-17T02:39:36.425Z,21.25
2022-12-17T02:42:45.317Z,22.52
2022-12-17T02:45:51.986Z,20.95
2022-12-17T02:48:56.288Z,21.13
2022-12-17T02:52:03.145Z,22.30
2022-12-17T02:55:10.101Z,14.73
2022-12-17T02:58:15.976Z,10.73
2022-12-17T03:01:20.422Z,10.05
2022-12-17T03:04:24.204Z,10.80
2022-12-17T03:07:28.047Z,12.38
2022-12-17T03:10:31.901Z,13.55
2022-12-17T03:13:43.720Z,8.98
2022-12-17T03:16:47.614Z,14.50
2022-12-17T03:19:51.525Z,14.07
2022-12-17T03:22:55.340Z,14.57
2022-12-17T03:25:59.174Z,12.70
2022-12-17T03:29:04.625Z,8.45
2022-12-17T03:32:08.490Z,10.07
2022-12-17T03:35:12.983Z,8.55
2022-12-17T03:38:16.742Z,11.07
2022-12-17T03:41:20.835Z,10.32
2022-12-17T03:44:26.174Z,12.68
2022-12-17T03:47:30.055Z,16.10
2022-12-17T03:50:33.974Z,12.18
2022-12-17T03:53:38.528Z,10.32
2022-12-17T03:56:42.865Z,13.47
2022-12-17T03:59:48.294Z,19.40
2022-12-17T04:05:57.131Z,14.15
2022-12-17T04:09:00.991Z,16.60
2022-12-17T04:12:05.148Z,14.88
2022-12-17T04:15:10.072Z,13.63
2022-12-17T04:18:14.499Z,10.95
2022-12-17T04:21:18.513Z,19.77
2022-12-17T04:24:22.434Z,11.57
2022-12-17T04:27:26.547Z,11.30
2022-12-17T04:30:34.430Z,9.02
2022-12-17T04:33:50.155Z,6.90
2022-12-17T04:36:54.217Z,13.25
2022-12-17T04:39:58.037Z,9.88
2022-12-17T04:43:02.055Z,14.50
2022-12-17T04:46:09.189Z,10.88
2022-12-17T04:49:13.387Z,17.05
2022-12-17T04:52:17.186Z,9.63
2022-12-17T04:55:21.163Z,11.68
2022-12-17T04:58:26.004Z,9.38
2022-12-17T05:01:31.540Z,10.80
2022-12-17T05:07:39.886Z,9.60
2022-12-17T05:10:43.873Z,8.75
2022-12-17T05:13:47.828Z,10.63
2022-12-17T05:16:53.341Z,8.15
2022-12-17T05:19:57.315Z,8.30
2022-12-17T05:23:01.215Z,7.40
2022-12-17T05:26:05.140Z,6.88
2022-12-17T05:29:15.437Z,5.47
2022-12-17T05:32:20.851Z,6.10
2022-12-17T05:35:25.673Z,5.93
2022-12-17T05:38:30.286Z,9.35
2022-12-17T05:41:34.268Z,7.43
2022-12-17T05:44:38.630Z,6.97
2022-12-17T05:47:43.779Z,9.30
2022-12-17T05:50:47.636Z,9.25
2022-12-17T05:54:03.102Z,6.07
2022-12-17T05:57:07.259Z,8.52
2022-12-17T06:00:10.954Z,12.55
2022-12-17T06:03:20.518Z,5.93
2022-12-17T06:06:24.724Z,6.93
2022-12-17T06:09:28.737Z,6.95
2022-12-17T06:12:32.736Z,5.00
2022-12-17T06:15:36.706Z,7.03
2022-12-17T06:18:41.592Z,5.15
2022-12-17T06:21:57.262Z,5.65
2022-12-17T06:25:01.452Z,5.13
2022-12-17T06:28:05.317Z,5.93
2022-12-17T06:31:10.273Z,13.15
2022-12-17T06:34:16.013Z,11.45
2022-12-17T06:37:20.269Z,8.98
2022-12-17T06:40:25.132Z,8.30
2022-12-17T06:43:29.022Z,11.73
2022-12-17T06:46:38.191Z,6.55
2022-12-17T06:49:43.465Z,5.90
2022-12-17T06:52:47.480Z,5.25
2022-12-17T06:55:51.395Z,5.75
2022-12-17T06:58:55.810Z,9.77
2022-12-17T07:01:59.785Z,8.90
2022-12-17T07:05:04.993Z,10.52
2022-12-17T07:08:15.792Z,9.65
2022-12-17T07:11:20.168Z,9.52
2022-12-17T07:14:23.978Z,9.35
2022-12-17T07:17:27.930Z,8.85
2022-12-17T07:20:33.457Z,8.63
2022-12-17T07:23:34.208Z,11.02
2022-12-17T07:26:40.843Z,8.18
2022-12-17T07:29:44.545Z,8.60
2022-12-17T07:32:48.467Z,7.43
2022-12-17T07:35:54.083Z,7.53
2022-12-17T07:38:57.853Z,7.32
2022-12-17T07:42:02.156Z,11.20
2022-12-17T07:45:06.497Z,10.10
2022-12-17T07:48:11.236Z,11.00
2022-12-17T07:51:16.486Z,12.40
2022-12-17T07:54:20.240Z,9.73
2022-12-17T07:57:24.660Z,9.32
2022-12-17T08:00:31.285Z,7.40
2022-12-17T08:03:35.637Z,6.82
2022-12-17T08:06:41.851Z,4.38
2022-12-17T08:09:45.857Z,4.63
2022-12-17T08:12:49.776Z,8.73
2022-12-17T08:15:53.526Z,7.70
2022-12-17T08:18:57.960Z,5.93
2022-12-17T08:22:03.003Z,8.70
2022-12-17T08:25:06.967Z,5.45
2022-12-17T08:28:41.105Z,6.40
2022-12-17T08:31:39.363Z,7.15
2022-12-17T08:34:43.236Z,5.65
2022-12-17T08:37:49.435Z,5.40
2022-12-17T08:40:53.426Z,5.72
2022-12-17T08:43:57.284Z,6.95
2022-12-17T08:47:01.075Z,6.25
2022-12-17T08:50:04.941Z,5.32
2022-12-17T08:53:16.502Z,7.03
2022-12-17T08:56:20.310Z,5.60
2022-12-17T08:59:24.832Z,5.93
2022-12-17T09:02:34.195Z,7.88
2022-12-17T09:05:38.946Z,4.53
2022-12-17T09:08:44.492Z,4.53
2022-12-17T09:11:48.413Z,8.93
2022-12-17T09:14:52.099Z,5.78
2022-12-17T09:17:56.237Z,5.10
2022-12-17T09:21:00.314Z,6.47
2022-12-17T09:24:08.697Z,5.03
2022-12-17T09:30:16.571Z,4.07
2022-12-17T09:33:20.877Z,5.60
2022-12-17T09:36:26.320Z,6.82
2022-12-17T09:42:43.346Z,6.03
2022-12-17T09:46:01.216Z,5.22
2022-12-17T09:49:14.089Z,5.38
2022-12-17T09:52:18.161Z,6.93
2022-12-17T09:55:33.874Z,11.32
2022-12-17T09:58:40.549Z,5.22
2022-12-17T10:01:53.391Z,6.00
2022-12-17T10:05:01.150Z,7.93
2022-12-17T10:08:05.982Z,9.63
2022-12-17T10:11:11.981Z,6.88
2022-12-17T10:14:15.924Z,9.63
2022-12-17T10:17:20.412Z,8.07
2022-12-17T10:20:37.000Z,8.13
2022-12-17T10:23:45.906Z,7.03
2022-12-17T10:26:53.903Z,8.88
2022-12-17T10:30:01.181Z,9.02
2022-12-17T10:33:13.943Z,12.63
2022-12-17T10:36:17.860Z,11.05
2022-12-17T10:39:22.537Z,12.07
2022-12-17T10:42:39.154Z,7.75
2022-12-17T10:45:44.534Z,8.35
2022-12-17T10:48:50.052Z,14.65
2022-12-17T10:51:56.062Z,10.05
2022-12-17T10:55:00.530Z,8.57
2022-12-17T10:58:08.213Z,9.23
2022-12-17T11:01:18.578Z,9.63
2022-12-17T11:04:22.261Z,8.85
2022-12-17T11:07:28.953Z,6.60
2022-12-17T11:10:35.837Z,7.07
2022-12-17T11:13:49.865Z,7.53
2022-12-17T11:17:00.951Z,6.85
2022-12-17T11:25:22.010Z,21.80
2022-12-17T11:28:35.969Z,14.20
2022-12-17T11:32:02.543Z,12.80
2022-12-17T11:35:20.727Z,10.25
2022-12-17T11:38:35.571Z,10.15
2022-12-17T11:41:52.993Z,7.43
2022-12-17T11:45:09.446Z,7.25
2022-12-17T11:48:18.449Z,6.72
2022-12-17T11:51:34.484Z,10.35
2022-12-17T11:54:53.292Z,6.03
2022-12-17T11:58:08.606Z,7.15
2022-12-17T12:01:22.918Z,8.45
2022-12-17T12:04:39.974Z,6.80
2022-12-17T12:07:54.934Z,6.55
2022-12-17T12:11:06.184Z,4.93
2022-12-17T12:14:21.519Z,5.70
2022-12-17T12:17:45.009Z,5.10
2022-12-17T12:21:07.002Z,5.53
2022-12-17T12:24:26.774Z,5.60
2022-12-17T12:27:43.018Z,6.95
2022-12-17T12:30:59.828Z,6.32
2022-12-17T12:34:11.517Z,6.60
2022-12-17T12:37:18.964Z,5.00
2022-12-17T12:40:32.494Z,7.32
2022-12-17T12:43:47.105Z,5.03
2022-12-17T12:47:00.555Z,4.82
2022-12-17T12:50:14.091Z,5.78
2022-12-17T12:53:19.009Z,6.32
2022-12-17T12:56:37.903Z,6.25
2022-12-17T12:59:50.150Z,5.07
2022-12-17T13:02:55.107Z,4.97
2022-12-17T13:05:44.935Z,4.65
2022-12-17T13:08:33.394Z,6.25
2022-12-17T13:11:30.585Z,4.80
2022-12-17T13:14:24.093Z,5.15
2022-12-17T13:17:27.213Z,5.15
2022-12-17T13:20:38.861Z,4.40
2022-12-17T13:23:32.452Z,5.75
2022-12-17T13:26:25.079Z,3.63
2022-12-17T13:29:24.533Z,6.03
2022-12-17T13:32:22.407Z,5.57
2022-12-17T13:35:32.501Z,5.80
2022-12-17T13:38:26.904Z,4.50
2022-12-17T13:41:16.171Z,5.30
2022-12-17T13:44:14.174Z,5.13
2022-12-17T13:47:00.949Z,3.65
2022-12-17T13:50:24.835Z,6.13
2022-12-17T13:53:17.453Z,5.78
2022-12-17T13:56:06.038Z,5.28
2022-12-17T13:58:54.460Z,4.25
2022-12-17T14:01:46.752Z,5.32
2022-12-17T14:04:37.268Z,6.15
2022-12-17T14:07:25.428Z,5.20
2022-12-17T14:10:22.816Z,6.38
2022-12-17T14:13:14.691Z,5.47
2022-12-17T14:16:01.539Z,4.35
2022-12-17T14:18:52.514Z,4.53
2022-12-17T14:21:41.377Z,3.90
2022-12-17T14:24:30.082Z,5.47
2022-12-17T14:27:42.561Z,4.28
2022-12-17T14:30:46.178Z,3.60
2022-12-17T14:33:38.933Z,5.22
2022-12-17T14:36:25.591Z,4.82
2022-12-17T14:39:19.431Z,5.03
2022-12-17T14:42:29.930Z,5.17
2022-12-17T14:45:25.613Z,5.32
2022-12-17T14:48:17.180Z,4.88
2022-12-17T14:51:03.737Z,6.80
2022-12-17T14:53:50.037Z,4.65
2022-12-17T14:56:37.038Z,5.82
2022-12-17T14:59:32.773Z,6.82
2022-12-17T15:02:26.269Z,4.20
2022-12-17T15:05:16.920Z,5.00
2022-12-17T15:08:03.625Z,6.43
2022-12-17T15:10:50.301Z,6.40
2022-12-17T15:13:36.984Z,5.10
2022-12-17T15:16:24.176Z,4.43
2022-12-17T15:19:10.691Z,5.20
2022-12-17T15:22:56.565Z,6.38
2022-12-17T15:25:46.724Z,5.90
2022-12-17T15:28:33.625Z,4.65
2022-12-17T15:31:29.530Z,5.32
2022-12-17T15:34:20.061Z,4.78
2022-12-17T15:37:06.953Z,4.00
2022-12-17T15:39:56.301Z,6.47
2022-12-17T15:43:05.844Z,4.15
2022-12-17T15:45:53.570Z,5.10
2022-12-17T15:48:44.820Z,5.85
2022-12-17T15:51:35.023Z,5.53
2022-12-17T15:54:22.715Z,6.85
2022-12-17T15:57:16.828Z,5.75
2022-12-17T16:00:06.519Z,6.47
2022-12-17T16:02:53.531Z,5.97
2022-12-17T16:05:43.126Z,7.57
2022-12-17T16:08:32.582Z,13.50
2022-12-17T16:11:18.845Z,8.98
2022-12-17T16:14:07.108Z,5.18
2022-12-17T16:16:53.900Z,7.50
2022-12-17T16:19:42.378Z,7.38
2022-12-17T17:00:04.440Z,7.78
2022-12-17T17:02:53.525Z,7.15
2022-12-17T17:05:41.022Z,4.45
2022-12-17T17:12:25.502Z,9.27
2022-12-17T17:15:13.896Z,12.75
2022-12-17T17:18:02.035Z,10.25
2022-12-17T17:20:48.594Z,9.52
2022-12-17T17:23:35.395Z,6.22
2022-12-17T17:26:22.840Z,7.22
2022-12-17T17:33:46.603Z,6.30
2022-12-17T17:36:33.665Z,5.03
2022-12-17T17:39:20.124Z,6.10
2022-12-17T17:43:21.660Z,8.55
2022-12-17T17:46:09.800Z,6.68
2022-12-17T17:48:59.699Z,10.07
2022-12-17T17:52:09.328Z,8.57
2022-12-17T17:57:57.502Z,7.80
2022-12-17T18:00:46.194Z,8.23
2022-12-17T18:03:32.721Z,9.82
2022-12-17T18:06:20.756Z,11.35
2022-12-17T18:09:08.576Z,11.18
2022-12-17T18:11:55.017Z,10.18
2022-12-17T18:14:46.753Z,7.80
2022-12-17T18:17:44.815Z,8.10
2022-12-17T18:20:31.748Z,11.45
2022-12-17T18:24:18.513Z,7.70
2022-12-17T18:27:05.932Z,8.45
2022-12-17T18:29:52.994Z,7.00
2022-12-17T18:32:43.973Z,10.60
2022-12-17T18:35:31.227Z,10.25
2022-12-17T18:38:18.801Z,8.05
2022-12-17T18:41:29.372Z,8.88
2022-12-17T18:44:16.083Z,6.60
2022-12-17T18:47:03.544Z,7.28
2022-12-17T18:49:50.582Z,8.07
2022-12-17T18:52:37.739Z,5.95
2022-12-17T18:55:24.948Z,6.97
2022-12-17T18:58:13.514Z,9.82
2022-12-17T19:01:00.865Z,9.40
2022-12-17T19:03:48.068Z,7.03
2022-12-17T19:06:39.481Z,8.32
2022-12-17T19:09:29.027Z,7.97
2022-12-17T19:12:16.122Z,6.10
2022-12-17T19:15:05.465Z,7.10
2022-12-17T19:17:54.006Z,8.73
2022-12-17T19:20:41.626Z,6.65
2022-12-17T19:23:33.310Z,10.45
2022-12-17T19:26:22.267Z,10.77
2022-12-17T19:29:10.623Z,7.25
2022-12-17T19:32:00.231Z,8.43
2022-12-17T19:34:47.345Z,7.65
2022-12-17T19:37:36.623Z,8.90
2022-12-17T19:40:24.676Z,7.15
2022-12-17T19:43:11.756Z,15.05
2022-12-17T19:46:12.568Z,8.60
2022-12-17T19:49:05.452Z,8.82
2022-12-17T19:51:52.961Z,8.18
2022-12-17T19:54:39.871Z,9.82
2022-12-17T19:57:27.360Z,9.60
2022-12-17T20:00:15.778Z,8.85
2022-12-17T20:03:03.729Z,10.18
2022-12-17T20:05:55.510Z,9.82
2022-12-17T20:08:42.890Z,10.40
2022-12-17T20:11:36.499Z,10.95
2022-12-17T20:14:28.703Z,6.75
2022-12-17T20:17:15.954Z,7.53
2022-12-17T20:20:03.375Z,8.57
2022-12-17T20:22:51.936Z,8.80
2022-12-17T20:25:39.242Z,8.75
2022-12-17T20:28:26.435Z,8.32
2022-12-17T20:31:13.906Z,11.50
2022-12-17T20:34:03.559Z,9.40
2022-12-17T20:36:51.071Z,10.43
2022-12-17T20:39:39.792Z,7.85
2022-12-17T20:42:27.322Z,8.93
2022-12-17T20:45:14.641Z,7.43
2022-12-17T20:48:01.915Z,10.32
2022-12-17T20:50:49.411Z,6.78
2022-12-17T20:53:46.333Z,8.65
2022-12-17T20:56:36.491Z,8.40
2022-12-17T20:59:23.840Z,6.57
2022-12-17T21:02:11.415Z,7.30
2022-12-17T21:05:01.535Z,6.38
2022-12-17T21:07:50.789Z,8.32
2022-12-17T21:10:37.625Z,6.45
2022-12-17T21:13:31.759Z,5.50
2022-12-17T21:16:21.257Z,6.35
2022-12-17T21:19:11.140Z,4.90
2022-12-17T21:21:58.242Z,4.00
2022-12-17T21:24:45.315Z,5.63
2022-12-17T21:27:33.057Z,5.32
2022-12-17T21:30:21.643Z,6.38
2022-12-17T21:33:08.856Z,7.45
2022-12-17T21:36:07.990Z,6.63
2022-12-17T21:38:59.366Z,6.32
2022-12-17T21:42:03.385Z,7.20
2022-12-17T21:44:50.407Z,5.20
2022-12-17T21:47:38.842Z,6.93
2022-12-17T21:50:26.035Z,5.10
2022-12-17T21:53:13.756Z,7.70
2022-12-17T21:56:05.216Z,9.35
2022-12-17T21:58:57.604Z,9.02
2022-12-17T22:01:45.280Z,5.57
2022-12-17T22:04:34.207Z,6.32
2022-12-17T22:07:23.082Z,6.43
2022-12-17T22:10:35.875Z,5.38
2022-12-17T22:13:39.789Z,6.32
2022-12-17T22:19:16.462Z,7.03
2022-12-17T22:22:06.006Z,5.72
2022-12-17T22:24:53.049Z,6.53
2022-12-17T22:27:43.681Z,9.32
2022-12-17T22:30:48.246Z,6.40
2022-12-17T22:34:00.028Z,5.82
2022-12-17T22:38:45.434Z,7.43
2022-12-17T22:42:42.810Z,5.45
2022-12-17T22:44:48.776Z,8.30
2022-12-17T22:46:26.421Z,5.53
2022-12-17T22:49:16.271Z,13.10
2022-12-17T22:52:03.563Z,8.05
2022-12-17T22:54:52.433Z,9.15
2022-12-17T22:57:43.927Z,8.90
2022-12-17T23:00:34.007Z,9.88
2022-12-17T23:03:21.192Z,8.60
2022-12-17T23:06:12.910Z,8.02
2022-12-17T23:09:00.180Z,9.13
2022-12-17T23:11:49.513Z,6.30
2022-12-17T23:14:36.635Z,5.97
2022-12-17T23:17:24.009Z,7.78
2022-12-17T23:20:14.411Z,7.22
2022-12-17T23:23:01.816Z,9.40
2022-12-17T23:25:48.916Z,8.52
2022-12-17T23:28:39.902Z,11.95
2022-12-17T23:31:29.612Z,8.27
2022-12-17T23:34:16.857Z,8.10
2022-12-17T23:37:04.035Z,6.38
2022-12-17T23:39:51.333Z,12.02
2022-12-17T23:42:39.256Z,6.05
2022-12-17T23:45:28.444Z,8.05
2022-12-17T23:48:17.281Z,5.68
2022-12-17T23:51:08.989Z,5.65
2022-12-17T23:53:56.264Z,6.70
2022-12-17T23:56:46.499Z,6.70
2022-12-17T23:59:33.738Z,8.00
